createdAt,value
2022-12-26T00:00:23.229Z,87.71
2022-12-26T00:01:25.951Z,87.33
2022-12-26T00:02:27.331Z,87.16
2022-12-26T00:03:28.811Z,86.66
2022-12-26T00:04:50.994Z,86.31
2022-12-26T00:05:51.552Z,86.58
2022-12-26T00:06:52.776Z,86.63
2022-12-26T00:07:54.158Z,86.41
2022-12-26T00:08:55.506Z,86.21
2022-12-26T00:09:56.717Z,86.04
2022-12-26T00:10:57.918Z,85.75
2022-12-26T00:11:59.238Z,86.01
2022-12-26T00:13:40.344Z,85.87
2022-12-26T00:14:21.728Z,86.06
2022-12-26T00:15:22.989Z,85.88
2022-12-26T00:16:25.005Z,86.57
2022-12-26T00:17:26.387Z,85.67
2022-12-26T00:18:27.611Z,85.54
2022-12-26T00:19:28.882Z,86.27
2022-12-26T00:20:30.210Z,86.93
2022-12-26T00:21:31.646Z,86.25
2022-12-26T00:22:33.957Z,85.92
2022-12-26T00:23:35.646Z,85.84
2022-12-26T00:24:36.947Z,86.02
2022-12-26T00:25:38.813Z,86.08
2022-12-26T00:26:40.063Z,86.35
2022-12-26T00:27:41.625Z,86.40
2022-12-26T00:28:43.233Z,86.70
2022-12-26T00:29:44.464Z,86.88
2022-12-26T00:30:45.724Z,86.34
2022-12-26T00:31:47.182Z,86.57
2022-12-26T00:32:48.721Z,86.85
2022-12-26T00:33:50.116Z,86.52
2022-12-26T00:34:51.325Z,86.29
2022-12-26T00:35:52.514Z,85.89
2022-12-26T00:36:53.814Z,86.53
2022-12-26T00:37:55.074Z,85.74
2022-12-26T00:38:57.372Z,86.09
2022-12-26T00:39:58.616Z,86.79
2022-12-26T00:41:00.779Z,86.84
2022-12-26T00:42:02.303Z,86.58
2022-12-26T00:43:03.593Z,86.75
2022-12-26T00:44:04.857Z,87.28
2022-12-26T00:45:06.366Z,87.38
2022-12-26T00:46:07.875Z,87.61
2022-12-26T00:47:09.237Z,87.01
2022-12-26T00:48:10.508Z,87.07
2022-12-26T00:49:11.778Z,87.65
2022-12-26T00:50:15.932Z,87.41
2022-12-26T00:51:17.753Z,88.32
2022-12-26T00:52:19.830Z,88.04
2022-12-26T00:53:21.874Z,87.88
2022-12-26T00:54:23.105Z,87.90
2022-12-26T00:55:24.340Z,88.33
2022-12-26T00:56:25.682Z,88.49
2022-12-26T00:57:26.897Z,88.14
2022-12-26T00:58:28.152Z,87.88
2022-12-26T00:59:29.375Z,87.90
2022-12-26T01:00:30.731Z,87.83
2022-12-26T01:01:32.116Z,88.19
2022-12-26T01:02:33.416Z,87.44
2022-12-26T01:03:34.853Z,87.52
2022-12-26T01:04:36.134Z,88.23
2022-12-26T01:05:40.870Z,88.05
2022-12-26T01:06:42.161Z,88.10
2022-12-26T01:08:22.721Z,87.98
2022-12-26T01:09:04.619Z,88.60
2022-12-26T01:10:07.379Z,88.53
2022-12-26T01:11:09.983Z,88.72
2022-12-26T01:12:11.232Z,88.58
2022-12-26T01:13:13.085Z,89.03
2022-12-26T01:14:17.040Z,89.24
2022-12-26T01:15:18.469Z,88.94
2022-12-26T01:16:20.397Z,89.97
2022-12-26T01:17:21.817Z,90.22
2022-12-26T01:18:23.076Z,90.05
2022-12-26T01:19:24.412Z,90.52
2022-12-26T01:20:26.416Z,89.99
2022-12-26T01:21:27.701Z,90.28
2022-12-26T01:22:28.965Z,90.57
2022-12-26T01:23:30.265Z,90.19
2022-12-26T01:24:31.532Z,90.54
2022-12-26T01:25:32.765Z,90.26
2022-12-26T01:26:34.061Z,90.37
2022-12-26T01:27:35.273Z,90.31
2022-12-26T01:28:36.490Z,91.00
2022-12-26T01:29:37.701Z,90.77
2022-12-26T01:30:38.926Z,91.78
2022-12-26T01:31:40.166Z,91.77
2022-12-26T01:32:41.521Z,92.04
2022-12-26T01:33:42.733Z,91.95
2022-12-26T01:34:43.982Z,91.69
2022-12-26T01:35:54.054Z,91.04
2022-12-26T01:36:55.385Z,91.07
2022-12-26T01:37:56.646Z,91.20
2022-12-26T01:38:57.916Z,90.90
2022-12-26T01:39:59.200Z,91.26
2022-12-26T01:41:00.715Z,91.32
2022-12-26T01:42:01.965Z,91.25
2022-12-26T01:43:03.230Z,91.58
2022-12-26T01:44:06.585Z,91.63
2022-12-26T01:45:23.133Z,91.28
2022-12-26T01:46:27.198Z,91.55
2022-12-26T01:47:48.309Z,92.16
2022-12-26T01:48:50.508Z,91.49
2022-12-26T01:49:54.562Z,91.88
2022-12-26T01:50:57.564Z,92.30
2022-12-26T01:52:00.678Z,91.87
2022-12-26T01:53:09.192Z,92.19
2022-12-26T01:54:40.279Z,91.78
2022-12-26T01:55:33.353Z,92.22
2022-12-26T01:56:37.813Z,92.10
2022-12-26T01:57:43.267Z,91.79
2022-12-26T01:58:47.370Z,91.98
2022-12-26T01:59:49.952Z,92.28
2022-12-26T02:00:51.662Z,93.23
2022-12-26T02:01:54.047Z,93.47
2022-12-26T02:02:59.323Z,93.22
2022-12-26T02:04:02.366Z,92.29
2022-12-26T02:05:03.757Z,92.22
2022-12-26T02:06:05.355Z,91.88
2022-12-26T02:07:07.202Z,92.28
2022-12-26T02:08:10.811Z,92.96
2022-12-26T02:09:12.078Z,92.93
2022-12-26T02:10:17.380Z,93.47
2022-12-26T02:11:23.838Z,93.90
2022-12-26T02:12:33.996Z,93.49
2022-12-26T02:13:39.196Z,93.59
2022-12-26T02:14:40.617Z,93.86
2022-12-26T02:15:41.921Z,94.40
2022-12-26T02:16:43.325Z,93.72
2022-12-26T02:17:44.796Z,93.43
2022-12-26T02:18:46.166Z,93.52
2022-12-26T02:20:06.194Z,93.60
2022-12-26T02:21:25.829Z,93.83
2022-12-26T02:22:33.212Z,93.63
2022-12-26T02:23:49.426Z,93.41
2022-12-26T02:25:10.609Z,92.97
2022-12-26T02:26:18.021Z,93.85
2022-12-26T02:27:30.610Z,93.61
2022-12-26T02:28:38.103Z,93.53
2022-12-26T02:29:57.398Z,93.93
2022-12-26T02:31:17.694Z,93.39
2022-12-26T02:32:21.866Z,93.13
2022-12-26T02:33:35.696Z,93.49
2022-12-26T02:34:42.787Z,93.42
2022-12-26T02:36:02.778Z,93.99
2022-12-26T02:37:04.030Z,94.02
2022-12-26T02:38:19.541Z,93.53
2022-12-26T02:39:44.933Z,93.85
2022-12-26T02:40:47.630Z,93.32
2022-12-26T02:41:55.039Z,92.62
2022-12-26T02:43:11.619Z,92.89
2022-12-26T02:44:15.845Z,92.28
2022-12-26T02:45:30.417Z,92.60
2022-12-26T02:46:39.861Z,91.99
2022-12-26T02:47:53.085Z,91.72
2022-12-26T02:49:03.596Z,91.88
2022-12-26T02:50:10.907Z,92.32
2022-12-26T02:51:15.312Z,92.23
2022-12-26T02:52:20.891Z,92.46
2022-12-26T02:53:24.905Z,92.38
2022-12-26T02:54:36.656Z,92.83
2022-12-26T02:55:41.337Z,92.73
2022-12-26T02:56:46.568Z,92.39
2022-12-26T02:58:08.090Z,92.64
2022-12-26T02:59:53.846Z,93.33
2022-12-26T03:00:48.252Z,93.57
2022-12-26T03:01:51.849Z,93.79
2022-12-26T03:03:09.928Z,93.81
2022-12-26T03:04:13.226Z,93.89
2022-12-26T03:05:17.715Z,93.38
2022-12-26T03:06:22.041Z,93.66
2022-12-26T03:07:27.154Z,93.85
2022-12-26T03:08:31.562Z,94.25
2022-12-26T03:09:33.949Z,94.40
2022-12-26T03:10:35.973Z,94.42
2022-12-26T03:11:39.465Z,94.52
2022-12-26T03:12:43.754Z,94.62
2022-12-26T03:13:45.704Z,94.50
2022-12-26T03:14:59.425Z,94.59
2022-12-26T03:16:06.944Z,95.09
2022-12-26T03:17:11.065Z,95.21
2022-12-26T03:18:12.358Z,94.88
2022-12-26T03:19:14.390Z,95.09
2022-12-26T03:20:21.741Z,95.00
2022-12-26T03:21:25.748Z,95.53
2022-12-26T03:22:30.740Z,95.53
2022-12-26T03:23:32.885Z,95.47
2022-12-26T03:24:34.489Z,95.66
2022-12-26T03:25:35.675Z,95.56
2022-12-26T03:26:41.005Z,95.45
2022-12-26T03:27:42.322Z,96.05
2022-12-26T03:28:44.004Z,96.02
2022-12-26T03:29:45.319Z,95.79
2022-12-26T03:30:46.570Z,96.07
2022-12-26T03:31:47.865Z,95.86
2022-12-26T03:32:49.117Z,96.11
2022-12-26T03:33:50.768Z,96.53
2022-12-26T03:34:52.250Z,96.43
2022-12-26T03:35:53.542Z,97.36
2022-12-26T03:37:10.566Z,97.09
2022-12-26T03:38:14.572Z,96.88
2022-12-26T03:39:18.614Z,97.41
2022-12-26T03:40:24.639Z,97.75
2022-12-26T03:41:30.917Z,97.69
2022-12-26T03:42:51.361Z,98.02
2022-12-26T03:43:52.592Z,98.61
2022-12-26T03:45:11.219Z,98.94
2022-12-26T03:46:17.300Z,98.99
2022-12-26T03:47:35.837Z,99.67
2022-12-26T03:48:43.128Z,99.98
2022-12-26T03:49:51.806Z,99.60
2022-12-26T03:50:59.746Z,99.62
2022-12-26T03:52:12.912Z,99.24
2022-12-26T03:53:22.793Z,99.14
2022-12-26T03:54:32.486Z,99.31
2022-12-26T03:55:42.250Z,99.55
2022-12-26T03:56:51.103Z,99.10
2022-12-26T03:57:56.482Z,99.49
2022-12-26T03:59:03.902Z,99.61
2022-12-26T04:00:09.559Z,99.38
2022-12-26T04:01:19.766Z,99.04
2022-12-26T04:02:22.626Z,98.26
2022-12-26T04:03:24.787Z,98.06
2022-12-26T04:04:26.359Z,97.46
2022-12-26T04:05:27.681Z,97.77
2022-12-26T04:06:33.142Z,97.71
2022-12-26T04:07:37.420Z,96.70
2022-12-26T04:09:03.744Z,96.10
2022-12-26T04:10:10.708Z,95.57
2022-12-26T04:11:14.801Z,94.92
2022-12-26T04:12:20.297Z,93.88
2022-12-26T04:13:24.209Z,93.75
2022-12-26T04:14:36.158Z,93.65
2022-12-26T04:15:41.780Z,93.78
2022-12-26T04:16:46.280Z,94.11
2022-12-26T04:17:54.257Z,93.40
2022-12-26T04:19:12.114Z,92.96
2022-12-26T04:20:30.073Z,92.60
2022-12-26T04:21:36.815Z,92.51
2022-12-26T04:22:43.623Z,92.42
2022-12-26T04:23:47.198Z,92.49
2022-12-26T04:24:52.762Z,92.43
2022-12-26T04:26:17.595Z,92.44
2022-12-26T04:27:21.496Z,92.69
2022-12-26T04:28:23.094Z,92.24
2022-12-26T04:29:24.529Z,92.62
2022-12-26T04:30:25.834Z,92.47
2022-12-26T04:31:30.504Z,92.10
2022-12-26T04:32:37.641Z,92.70
2022-12-26T04:33:44.071Z,92.45
2022-12-26T04:34:50.906Z,92.54
2022-12-26T04:35:54.829Z,92.36
2022-12-26T04:36:58.501Z,92.82
2022-12-26T04:38:00.462Z,91.83
2022-12-26T04:39:04.332Z,92.00
2022-12-26T04:40:08.298Z,92.49
2022-12-26T04:41:10.717Z,92.04
2022-12-26T04:42:12.451Z,91.74
2022-12-26T04:43:48.856Z,91.62
2022-12-26T04:44:36.954Z,91.75
2022-12-26T04:45:38.237Z,91.31
2022-12-26T04:46:41.506Z,90.89
2022-12-26T04:47:42.794Z,91.10
2022-12-26T04:48:45.865Z,91.64
2022-12-26T04:49:47.110Z,91.20
2022-12-26T04:50:49.229Z,91.59
2022-12-26T04:51:50.599Z,91.01
2022-12-26T04:52:51.864Z,90.76
2022-12-26T04:53:53.165Z,90.72
2022-12-26T04:54:54.437Z,90.85
2022-12-26T04:55:55.679Z,91.77
2022-12-26T04:56:56.884Z,91.32
2022-12-26T04:57:58.541Z,91.53
2022-12-26T04:58:59.823Z,91.87
2022-12-26T05:00:01.125Z,91.68
2022-12-26T05:01:02.407Z,91.54
2022-12-26T05:02:03.761Z,91.44
2022-12-26T05:03:05.186Z,91.97
2022-12-26T05:04:06.497Z,91.24
2022-12-26T05:05:09.176Z,90.99
2022-12-26T05:06:10.509Z,90.82
2022-12-26T05:07:20.029Z,90.64
2022-12-26T05:08:24.184Z,90.43
2022-12-26T05:09:25.809Z,89.99
2022-12-26T05:10:28.016Z,90.20
2022-12-26T05:11:30.003Z,90.16
2022-12-26T05:12:31.243Z,90.12
2022-12-26T05:13:32.477Z,90.47
2022-12-26T05:14:34.418Z,90.46
2022-12-26T05:15:36.207Z,89.82
2022-12-26T05:16:37.475Z,90.24
2022-12-26T05:17:38.747Z,90.38
2022-12-26T05:18:39.966Z,90.64
2022-12-26T05:19:41.236Z,90.51
2022-12-26T05:20:42.635Z,90.32
2022-12-26T05:21:43.919Z,90.54
2022-12-26T05:22:45.337Z,90.04
2022-12-26T05:23:46.662Z,89.95
2022-12-26T05:24:48.271Z,89.98
2022-12-26T05:25:49.667Z,90.46
2022-12-26T05:26:51.201Z,90.41
2022-12-26T05:27:52.634Z,90.80
2022-12-26T05:28:56.599Z,89.73
2022-12-26T05:29:57.894Z,89.70
2022-12-26T05:30:59.317Z,89.61
2022-12-26T05:32:00.617Z,89.35
2022-12-26T05:33:01.818Z,88.83
2022-12-26T05:34:03.221Z,88.74
2022-12-26T05:35:04.612Z,88.74
2022-12-26T05:36:06.069Z,88.46
2022-12-26T05:37:07.290Z,88.40
2022-12-26T05:38:09.849Z,88.65
2022-12-26T05:39:11.225Z,88.59
2022-12-26T05:40:12.510Z,88.59
2022-12-26T05:41:14.055Z,88.87
2022-12-26T05:42:15.312Z,88.13
2022-12-26T05:43:16.538Z,87.79
2022-12-26T05:44:17.741Z,88.33
2022-12-26T05:45:19.815Z,88.34
2022-12-26T05:46:21.347Z,88.59
2022-12-26T05:47:22.729Z,88.91
2022-12-26T05:48:24.035Z,88.78
2022-12-26T05:49:25.308Z,88.21
2022-12-26T05:50:26.631Z,88.95
2022-12-26T05:51:27.899Z,88.62
2022-12-26T05:52:29.128Z,88.45
2022-12-26T05:53:31.456Z,88.85
2022-12-26T05:54:32.730Z,88.33
2022-12-26T05:55:33.974Z,87.98
2022-12-26T05:56:35.206Z,88.07
2022-12-26T05:57:36.441Z,87.96
2022-12-26T05:58:38.108Z,88.47
2022-12-26T05:59:39.420Z,88.00
2022-12-26T06:00:40.702Z,88.19
2022-12-26T06:01:42.046Z,89.04
2022-12-26T06:02:43.511Z,89.58
2022-12-26T06:03:48.917Z,89.13
2022-12-26T06:04:50.257Z,89.00
2022-12-26T06:05:51.530Z,89.16
2022-12-26T06:06:52.961Z,88.39
2022-12-26T06:07:54.225Z,88.79
2022-12-26T06:08:56.139Z,88.64
2022-12-26T06:09:57.368Z,88.41
2022-12-26T06:10:58.625Z,88.33
2022-12-26T06:11:59.864Z,88.70
2022-12-26T06:13:01.090Z,88.69
2022-12-26T06:14:02.401Z,88.64
2022-12-26T06:15:03.800Z,88.55
2022-12-26T06:16:06.349Z,88.38
2022-12-26T06:17:07.626Z,88.73
2022-12-26T06:18:08.907Z,88.53
2022-12-26T06:19:10.199Z,88.80
2022-12-26T06:20:11.558Z,88.64
2022-12-26T06:21:14.256Z,88.75
2022-12-26T06:22:15.451Z,88.93
2022-12-26T06:23:16.672Z,88.77
2022-12-26T06:24:17.956Z,89.29
2022-12-26T06:25:19.215Z,88.76
2022-12-26T06:26:20.504Z,89.32
2022-12-26T06:27:21.782Z,88.95
2022-12-26T06:28:24.355Z,89.40
2022-12-26T06:29:25.602Z,89.71
2022-12-26T06:30:26.882Z,89.90
2022-12-26T06:31:28.162Z,90.17
2022-12-26T06:32:29.422Z,90.24
2022-12-26T06:33:30.808Z,90.05
2022-12-26T06:34:32.151Z,89.83
2022-12-26T06:35:34.126Z,90.29
2022-12-26T06:36:35.339Z,90.29
2022-12-26T06:37:36.582Z,90.66
2022-12-26T06:38:38.100Z,90.82
2022-12-26T06:39:39.382Z,90.75
2022-12-26T06:40:41.203Z,91.31
2022-12-26T06:41:42.469Z,90.89
2022-12-26T06:42:43.733Z,91.37
2022-12-26T06:43:45.047Z,91.74
2022-12-26T06:44:46.270Z,91.81
2022-12-26T06:45:54.519Z,91.30
2022-12-26T06:46:55.809Z,91.99
2022-12-26T06:47:57.026Z,91.65
2022-12-26T06:48:58.232Z,92.18
2022-12-26T06:49:59.525Z,91.38
2022-12-26T06:51:04.387Z,91.69
2022-12-26T06:52:05.610Z,91.72
2022-12-26T06:53:06.920Z,91.90
2022-12-26T06:54:09.168Z,91.91
2022-12-26T06:55:10.450Z,91.72
2022-12-26T06:56:13.454Z,91.49
2022-12-26T06:57:14.665Z,91.42
2022-12-26T06:58:16.451Z,91.58
2022-12-26T06:59:17.701Z,91.23
2022-12-26T07:00:19.188Z,91.01
2022-12-26T07:01:21.004Z,91.15
2022-12-26T07:02:22.408Z,90.61
2022-12-26T07:03:23.701Z,89.77
2022-12-26T07:04:24.926Z,90.26
2022-12-26T07:05:26.588Z,90.03
2022-12-26T07:06:34.720Z,90.25
2022-12-26T07:07:36.059Z,89.49
2022-12-26T07:08:37.388Z,90.22
2022-12-26T07:09:38.640Z,90.54
2022-12-26T07:10:39.921Z,90.13
2022-12-26T07:11:42.574Z,90.24
2022-12-26T07:12:43.825Z,90.47
2022-12-26T07:13:45.379Z,89.88
2022-12-26T07:14:48.310Z,89.90
2022-12-26T07:15:49.600Z,90.23
2022-12-26T07:16:50.889Z,90.60
2022-12-26T07:17:52.450Z,90.85
2022-12-26T07:18:54.546Z,91.14
2022-12-26T07:19:55.796Z,90.67
2022-12-26T07:20:57.893Z,90.74
2022-12-26T07:21:59.142Z,90.98
2022-12-26T07:23:00.386Z,91.21
2022-12-26T07:24:01.732Z,90.85
2022-12-26T07:25:03.005Z,90.71
2022-12-26T07:26:04.367Z,90.96
2022-12-26T07:27:05.588Z,90.93
2022-12-26T07:28:06.919Z,91.09
2022-12-26T07:29:09.955Z,90.86
2022-12-26T07:30:11.379Z,90.81
2022-12-26T07:31:19.556Z,91.36
2022-12-26T07:32:20.821Z,91.66
2022-12-26T07:33:22.031Z,92.31
2022-12-26T07:34:29.428Z,92.77
2022-12-26T07:35:32.499Z,93.02
2022-12-26T07:36:33.892Z,93.45
2022-12-26T07:37:35.197Z,93.47
2022-12-26T07:38:36.438Z,93.74
2022-12-26T07:39:37.707Z,93.98
2022-12-26T07:40:39.205Z,93.65
2022-12-26T07:41:40.448Z,94.00
2022-12-26T07:42:41.661Z,94.29
2022-12-26T07:43:42.853Z,93.58
2022-12-26T07:44:44.125Z,93.51
2022-12-26T07:45:46.107Z,93.66
2022-12-26T07:46:47.488Z,94.24
2022-12-26T07:47:52.577Z,94.07
2022-12-26T07:48:53.812Z,94.24
2022-12-26T07:49:55.787Z,94.71
2022-12-26T07:51:01.245Z,94.51
2022-12-26T07:52:02.497Z,94.77
2022-12-26T07:53:03.832Z,94.39
2022-12-26T07:54:10.661Z,94.52
2022-12-26T07:55:14.824Z,94.13
2022-12-26T07:56:16.149Z,94.46
2022-12-26T07:58:38.566Z,94.75
2022-12-26T07:59:39.781Z,95.03
2022-12-26T08:00:41.052Z,94.58
2022-12-26T08:01:43.136Z,94.35
2022-12-26T08:02:44.985Z,93.86
2022-12-26T08:03:48.055Z,94.04
2022-12-26T08:04:49.429Z,93.77
2022-12-26T08:05:51.296Z,94.08
2022-12-26T08:06:52.528Z,94.20
2022-12-26T08:07:54.994Z,94.13
2022-12-26T08:08:57.460Z,94.19
2022-12-26T08:09:58.702Z,94.36
2022-12-26T08:11:00.800Z,94.12
2022-12-26T08:12:02.236Z,94.53
2022-12-26T08:13:03.445Z,94.49
2022-12-26T08:14:04.677Z,94.93
2022-12-26T08:15:06.196Z,95.38
2022-12-26T08:16:08.391Z,95.52
2022-12-26T08:17:09.696Z,95.56
2022-12-26T08:18:10.996Z,95.20
2022-12-26T08:19:12.225Z,95.03
2022-12-26T08:20:13.464Z,94.92
2022-12-26T08:21:14.849Z,95.20
2022-12-26T08:22:16.150Z,95.62
2022-12-26T08:23:17.937Z,96.22
2022-12-26T08:24:19.203Z,96.71
2022-12-26T08:25:22.014Z,96.54
2022-12-26T08:26:23.616Z,96.59
2022-12-26T08:27:24.829Z,97.26
2022-12-26T08:28:26.103Z,97.82
2022-12-26T08:29:27.337Z,97.80
2022-12-26T08:30:28.570Z,97.85
2022-12-26T08:31:29.819Z,98.17
2022-12-26T08:32:31.097Z,98.64
2022-12-26T08:33:32.344Z,98.51
2022-12-26T08:34:34.289Z,98.75
2022-12-26T08:35:35.948Z,98.65
2022-12-26T08:37:56.025Z,99.53
2022-12-26T08:38:59.037Z,99.49
2022-12-26T08:40:00.586Z,99.71
2022-12-26T08:41:02.935Z,99.48
2022-12-26T08:42:04.471Z,99.14
2022-12-26T08:43:32.071Z,99.18
2022-12-26T08:44:28.677Z,99.60
2022-12-26T08:45:30.496Z,99.84
2022-12-26T08:46:32.131Z,99.96
2022-12-26T08:47:33.433Z,100.00
2022-12-26T08:48:35.329Z,100.00
2022-12-26T08:49:36.663Z,100.00
2022-12-26T08:50:41.515Z,100.00
2022-12-26T08:51:43.050Z,100.00
2022-12-26T08:52:44.487Z,100.00
2022-12-26T08:53:48.247Z,100.00
2022-12-26T08:54:49.476Z,100.00
2022-12-26T08:55:50.727Z,100.00
2022-12-26T08:56:52.342Z,100.00
2022-12-26T08:57:53.869Z,100.00
2022-12-26T08:58:55.583Z,100.00
2022-12-26T08:59:56.909Z,100.00
2022-12-26T09:01:08.389Z,100.00
2022-12-26T09:02:11.119Z,100.00
2022-12-26T09:03:15.042Z,100.00
2022-12-26T09:04:16.461Z,100.00
2022-12-26T09:05:19.460Z,100.00
2022-12-26T09:06:21.420Z,100.00
2022-12-26T09:07:22.776Z,100.00
2022-12-26T09:08:25.801Z,100.00
2022-12-26T09:09:27.604Z,100.00
2022-12-26T09:10:28.895Z,100.00
2022-12-26T09:11:30.718Z,100.00
2022-12-26T09:12:37.460Z,100.00
2022-12-26T09:13:41.140Z,100.00
2022-12-26T09:14:42.573Z,100.00
2022-12-26T09:15:43.870Z,100.00
2022-12-26T09:16:50.018Z,100.00
2022-12-26T09:17:52.677Z,100.00
2022-12-26T09:18:55.353Z,100.00
2022-12-26T09:19:56.574Z,100.00
2022-12-26T09:20:59.856Z,100.00
2022-12-26T09:22:07.411Z,100.00
2022-12-26T09:23:08.707Z,100.00
2022-12-26T09:24:11.773Z,100.00
2022-12-26T09:25:13.072Z,100.00
2022-12-26T09:26:17.867Z,100.00
2022-12-26T09:27:20.587Z,100.00
2022-12-26T09:28:22.338Z,100.00
2022-12-26T09:29:23.537Z,100.00
2022-12-26T09:30:24.826Z,100.00
2022-12-26T09:31:27.271Z,100.00
2022-12-26T09:32:32.380Z,100.00
2022-12-26T09:33:34.627Z,100.00
2022-12-26T09:34:37.549Z,100.00
2022-12-26T09:35:40.954Z,100.00
2022-12-26T09:36:42.242Z,100.00
2022-12-26T09:37:43.504Z,100.00
2022-12-26T09:38:45.759Z,100.00
2022-12-26T09:39:47.050Z,100.00
2022-12-26T09:40:55.383Z,100.00
2022-12-26T09:42:17.160Z,100.00
2022-12-26T09:43:21.781Z,100.00
2022-12-26T09:44:26.653Z,100.00
2022-12-26T09:45:38.576Z,100.00
2022-12-26T09:46:39.886Z,100.00
2022-12-26T09:47:50.671Z,100.00
2022-12-26T09:48:57.551Z,100.00
2022-12-26T09:50:02.616Z,100.00
2022-12-26T09:51:04.456Z,100.00
2022-12-26T09:52:12.963Z,100.00
2022-12-26T09:53:16.911Z,100.00
2022-12-26T09:54:21.881Z,100.00
2022-12-26T09:55:34.239Z,100.00
2022-12-26T09:57:02.138Z,100.00
2022-12-26T09:58:04.861Z,100.00
2022-12-26T09:59:12.185Z,100.00
2022-12-26T10:00:19.396Z,100.00
2022-12-26T10:01:23.210Z,100.00
2022-12-26T10:02:26.594Z,100.00
2022-12-26T10:03:28.335Z,100.00
2022-12-26T10:04:30.516Z,100.00
2022-12-26T10:05:39.433Z,100.00
2022-12-26T10:06:43.431Z,100.00
2022-12-26T10:07:48.337Z,100.00
2022-12-26T10:08:56.687Z,100.00
2022-12-26T10:10:12.109Z,100.00
2022-12-26T10:11:32.633Z,100.00
2022-12-26T10:13:08.308Z,100.00
2022-12-26T10:14:21.370Z,100.00
2022-12-26T10:15:29.386Z,100.00
2022-12-26T10:16:42.986Z,100.00
2022-12-26T10:18:11.979Z,100.00
2022-12-26T10:19:32.219Z,100.00
2022-12-26T10:20:36.991Z,100.00
2022-12-26T10:21:47.093Z,100.00
2022-12-26T10:22:58.415Z,100.00
2022-12-26T10:24:08.695Z,100.00
2022-12-26T10:25:18.236Z,100.00
2022-12-26T10:26:34.040Z,100.00
2022-12-26T10:27:39.858Z,100.00
2022-12-26T10:28:51.665Z,100.00
2022-12-26T10:30:02.222Z,100.00
2022-12-26T10:31:07.155Z,100.00
2022-12-26T10:32:13.875Z,100.00
2022-12-26T10:33:18.615Z,100.00
2022-12-26T10:34:23.193Z,100.00
2022-12-26T10:35:37.526Z,100.00
2022-12-26T10:36:38.985Z,100.00
2022-12-26T10:37:40.952Z,100.00
2022-12-26T10:38:45.514Z,100.00
2022-12-26T10:39:56.046Z,100.00
2022-12-26T10:41:09.099Z,100.00
2022-12-26T10:42:19.428Z,100.00
2022-12-26T10:43:31.333Z,100.00
2022-12-26T10:46:09.510Z,100.00
2022-12-26T10:47:18.434Z,100.00
2022-12-26T10:48:20.823Z,100.00
2022-12-26T10:49:24.120Z,100.00
2022-12-26T10:50:33.309Z,100.00
2022-12-26T10:53:34.790Z,100.00
2022-12-26T10:54:36.100Z,100.00
2022-12-26T10:55:39.848Z,100.00
2022-12-26T10:58:04.907Z,100.00
2022-12-26T10:59:10.035Z,100.00
2022-12-26T11:00:18.472Z,100.00
2022-12-26T11:01:28.744Z,100.00
2022-12-26T11:02:32.829Z,100.00
2022-12-26T11:03:34.353Z,100.00
2022-12-26T11:05:11.274Z,100.00
2022-12-26T11:06:08.906Z,100.00
2022-12-26T11:07:12.464Z,100.00
2022-12-26T11:08:17.175Z,100.00
2022-12-26T11:09:24.693Z,100.00
2022-12-26T11:10:27.848Z,100.00
2022-12-26T11:11:33.478Z,100.00
2022-12-26T11:12:39.937Z,100.00
2022-12-26T11:13:50.577Z,100.00
2022-12-26T11:14:57.740Z,100.00
2022-12-26T11:15:59.032Z,100.00
2022-12-26T11:17:05.709Z,100.00
2022-12-26T11:18:15.924Z,100.00
2022-12-26T11:19:33.463Z,100.00
2022-12-26T11:20:34.710Z,100.00
2022-12-26T11:21:37.201Z,100.00
2022-12-26T11:22:52.684Z,100.00
2022-12-26T11:24:17.003Z,100.00
2022-12-26T11:25:20.373Z,100.00
2022-12-26T11:26:35.602Z,100.00
2022-12-26T11:27:41.462Z,100.00
2022-12-26T11:28:44.781Z,100.00
2022-12-26T11:29:48.081Z,100.00
2022-12-26T11:30:52.370Z,100.00
2022-12-26T11:31:57.747Z,100.00
2022-12-26T11:33:24.536Z,100.00
2022-12-26T11:34:40.489Z,100.00
2022-12-26T11:35:46.826Z,100.00
2022-12-26T11:36:49.701Z,100.00
2022-12-26T11:37:53.044Z,100.00
2022-12-26T11:39:27.599Z,100.00
2022-12-26T11:40:33.630Z,100.00
2022-12-26T11:41:39.047Z,100.00
2022-12-26T11:42:57.510Z,100.00
2022-12-26T11:44:09.916Z,100.00
2022-12-26T11:45:12.796Z,100.00
2022-12-26T11:46:21.917Z,100.00
2022-12-26T11:47:28.799Z,100.00
2022-12-26T11:48:30.460Z,100.00
2022-12-26T11:49:45.849Z,100.00
2022-12-26T11:50:47.136Z,100.00
2022-12-26T11:51:52.875Z,100.00
2022-12-26T11:53:04.274Z,100.00
2022-12-26T11:54:23.729Z,100.00
2022-12-26T11:55:25.026Z,100.00
2022-12-26T11:56:26.997Z,100.00
2022-12-26T11:57:30.007Z,100.00
2022-12-26T11:58:32.458Z,100.00
2022-12-26T11:59:34.513Z,100.00
2022-12-26T12:00:40.344Z,100.00
2022-12-26T12:01:42.007Z,100.00
2022-12-26T12:02:45.375Z,100.00
2022-12-26T12:03:49.997Z,100.00
2022-12-26T12:04:53.665Z,100.00
2022-12-26T12:06:02.542Z,100.00
2022-12-26T12:07:11.157Z,100.00
2022-12-26T12:09:54.877Z,100.00
2022-12-26T12:11:17.438Z,100.00
2022-12-26T12:12:42.343Z,100.00
2022-12-26T12:13:53.055Z,100.00
2022-12-26T12:15:09.558Z,100.00
2022-12-26T12:16:30.249Z,100.00
2022-12-26T12:17:41.254Z,100.00
2022-12-26T12:18:49.439Z,100.00
2022-12-26T12:20:09.054Z,100.00
2022-12-26T12:21:25.768Z,100.00
2022-12-26T12:22:28.026Z,100.00
2022-12-26T12:23:48.267Z,100.00
2022-12-26T12:24:49.504Z,100.00
2022-12-26T12:26:06.060Z,100.00
2022-12-26T12:27:09.753Z,100.00
2022-12-26T12:28:14.466Z,100.00
2022-12-26T12:29:22.056Z,100.00
2022-12-26T12:30:34.119Z,100.00
2022-12-26T12:31:53.678Z,100.00
2022-12-26T12:33:14.620Z,100.00
2022-12-26T12:36:07.269Z,100.00
2022-12-26T12:37:08.511Z,100.00
2022-12-26T12:38:12.940Z,100.00
2022-12-26T12:39:23.391Z,100.00
2022-12-26T12:40:40.089Z,100.00
2022-12-26T12:41:59.970Z,100.00
2022-12-26T12:43:10.177Z,100.00
2022-12-26T12:44:21.716Z,100.00
2022-12-26T12:45:24.940Z,100.00
2022-12-26T12:46:49.744Z,100.00
2022-12-26T12:48:03.217Z,100.00
2022-12-26T12:49:15.918Z,100.00
2022-12-26T12:50:28.544Z,100.00
2022-12-26T12:51:32.988Z,100.00
2022-12-26T12:53:03.526Z,100.00
2022-12-26T12:54:10.278Z,100.00
2022-12-26T12:55:17.601Z,100.00
2022-12-26T12:56:27.861Z,100.00
2022-12-26T12:57:36.868Z,100.00
2022-12-26T12:58:57.258Z,100.00
2022-12-26T13:00:11.050Z,100.00
2022-12-26T13:01:15.671Z,100.00
2022-12-26T13:02:21.454Z,100.00
2022-12-26T13:03:40.632Z,100.00
2022-12-26T13:04:46.977Z,100.00
2022-12-26T13:05:48.163Z,100.00
2022-12-26T13:06:52.492Z,100.00
2022-12-26T13:08:18.499Z,100.00
2022-12-26T13:09:23.532Z,100.00
2022-12-26T13:10:30.141Z,100.00
2022-12-26T13:11:39.997Z,100.00
2022-12-26T13:12:45.932Z,100.00
2022-12-26T13:13:53.776Z,100.00
2022-12-26T13:15:18.515Z,100.00
2022-12-26T13:16:22.384Z,100.00
2022-12-26T13:17:27.436Z,100.00
2022-12-26T13:18:36.233Z,100.00
2022-12-26T13:19:46.294Z,100.00
2022-12-26T13:21:03.842Z,100.00
2022-12-26T13:22:06.988Z,100.00
2022-12-26T13:23:17.520Z,100.00
2022-12-26T13:24:26.375Z,100.00
2022-12-26T13:25:35.490Z,100.00
2022-12-26T13:26:42.665Z,100.00
2022-12-26T13:27:45.587Z,100.00
2022-12-26T13:29:07.042Z,100.00
2022-12-26T13:30:17.496Z,100.00
2022-12-26T13:31:20.685Z,100.00
2022-12-26T13:32:29.542Z,100.00
2022-12-26T13:33:31.726Z,100.00
2022-12-26T13:34:45.918Z,100.00
2022-12-26T13:35:58.086Z,100.00
2022-12-26T13:37:00.959Z,100.00
2022-12-26T13:38:05.314Z,100.00
2022-12-26T13:39:15.687Z,100.00
2022-12-26T13:40:20.515Z,100.00
2022-12-26T13:41:22.897Z,100.00
2022-12-26T13:42:30.940Z,100.00
2022-12-26T13:43:32.374Z,100.00
2022-12-26T13:44:33.683Z,100.00
2022-12-26T13:45:39.017Z,100.00
2022-12-26T13:46:47.596Z,100.00
2022-12-26T13:47:48.970Z,100.00
2022-12-26T13:48:57.061Z,100.00
2022-12-26T13:49:58.396Z,100.00
2022-12-26T13:51:01.144Z,100.00
2022-12-26T13:52:11.751Z,100.00
2022-12-26T13:53:25.050Z,100.00
2022-12-26T13:54:31.901Z,100.00
2022-12-26T13:55:41.389Z,100.00
2022-12-26T13:56:46.024Z,100.00
2022-12-26T13:58:06.881Z,100.00
2022-12-26T13:59:25.720Z,100.00
2022-12-26T14:00:56.671Z,100.00